Time;durP1;ratioP1;P1;durP2;ratioP2;P2;SDS_P1;SDS_P2;PMS_P1;PMS_P2;Temp;Humidity;BMP_temperature;BMP_pressure;BME280_temperature;BME280_humidity;BME280_pressure;Samples;Min_cycle;Max_cycle;Signal;HPM_P1;HPM_P2
2023/02/06 00:01:16;;;;;;;19.17;5.40;;;2.50;99.90;;;;;;5033552;28;20491;-66
2023/02/06 00:03:43;;;;;;;20.70;5.07;;;2.50;99.90;;;;;;5033261;28;20497;-66
2023/02/06 00:06:10;;;;;;;18.00;4.80;;;2.50;99.90;;;;;;5031409;28;20471;-66
2023/02/06 00:08:37;;;;;;;22.17;6.90;;;2.60;99.90;;;;;;5031706;28;20463;-66
2023/02/06 00:11:08;;;;;;;19.20;4.93;;;2.60;99.90;;;;;;5031915;28;20469;-66
2023/02/06 00:13:36;;;;;;;21.90;5.83;;;2.50;99.90;;;;;;5031948;28;20907;-66
2023/02/06 00:16:04;;;;;;;22.77;5.57;;;2.50;99.90;;;;;;5032135;28;20842;-66
2023/02/06 00:18:31;;;;;;;21.20;5.93;;;2.50;99.90;;;;;;5032283;28;20470;-66
2023/02/06 00:20:58;;;;;;;23.00;5.57;;;2.40;99.90;;;;;;5033876;28;20774;-66
2023/02/06 00:23:25;;;;;;;19.63;5.47;;;2.40;99.90;;;;;;5037024;28;20490;-66
2023/02/06 00:25:52;;;;;;;25.27;6.53;;;2.40;99.90;;;;;;5037182;28;20485;-66
2023/02/06 00:28:21;;;;;;;23.07;5.97;;;2.30;99.90;;;;;;5037276;28;20471;-66
2023/02/06 00:30:48;;;;;;;21.07;5.40;;;2.30;99.90;;;;;;5037327;28;20469;-66
2023/02/06 00:33:15;;;;;;;15.00;6.23;;;2.30;99.90;;;;;;5037198;28;20766;-66
2023/02/06 00:35:42;;;;;;;20.00;6.10;;;2.20;99.90;;;;;;5037192;28;20537;-66
2023/02/06 00:38:11;;;;;;;19.17;5.70;;;2.20;99.90;;;;;;5036289;28;20463;-66
2023/02/06 00:40:38;;;;;;;24.13;7.00;;;2.10;99.90;;;;;;5036606;27;20471;-66
2023/02/06 00:43:06;;;;;;;23.87;5.93;;;2.10;99.90;;;;;;5037145;28;20520;-66
2023/02/06 00:45:34;;;;;;;28.27;8.27;;;2.10;99.90;;;;;;5037198;28;20491;-65
2023/02/06 00:48:01;;;;;;;24.27;6.50;;;2.10;99.90;;;;;;5036933;28;20875;-65
2023/02/06 00:50:29;;;;;;;49.23;7.03;;;2.00;99.90;;;;;;5036868;28;20471;-65
2023/02/06 00:52:56;;;;;;;23.53;5.93;;;2.10;99.90;;;;;;5036923;28;20897;-65
2023/02/06 00:55:23;;;;;;;27.53;5.90;;;2.10;99.90;;;;;;5036099;28;20530;-65
2023/02/06 00:57:50;;;;;;;20.37;6.20;;;2.10;99.90;;;;;;5036496;28;20887;-65
2023/02/06 01:00:18;;;;;;;18.60;5.63;;;2.00;99.90;;;;;;5036469;28;20464;-65
2023/02/06 01:02:46;;;;;;;17.97;6.13;;;2.10;99.90;;;;;;5036276;28;20593;-65
2023/02/06 01:05:13;;;;;;;20.57;6.60;;;2.10;99.90;;;;;;5036787;28;20784;-65
2023/02/06 01:07:42;;;;;;;18.90;6.30;;;2.00;99.90;;;;;;5036562;28;20441;-65
2023/02/06 01:10:12;;;;;;;23.90;6.40;;;2.00;99.90;;;;;;5035722;28;20467;-65
2023/02/06 01:12:39;;;;;;;25.47;7.00;;;1.90;99.90;;;;;;5036668;28;20495;-65
2023/02/06 01:15:10;;;;;;;26.80;6.67;;;1.90;99.90;;;;;;5036565;28;20463;-65
2023/02/06 01:17:37;;;;;;;21.57;5.73;;;1.90;99.90;;;;;;5036979;28;20438;-65
2023/02/06 01:20:10;;;;;;;19.23;5.23;;;1.90;99.90;;;;;;5036285;28;20494;-65
2023/02/06 01:22:37;;;;;;;23.27;5.60;;;1.90;99.90;;;;;;5036199;28;20764;-65
2023/02/06 01:25:05;;;;;;;31.40;5.83;;;1.90;99.90;;;;;;5036562;28;20546;-65
2023/02/06 01:27:35;;;;;;;23.63;6.30;;;1.90;99.90;;;;;;5036451;28;20884;-65
2023/02/06 01:30:02;;;;;;;22.83;5.53;;;1.90;99.90;;;;;;5036239;28;20518;-65
2023/02/06 01:32:29;;;;;;;16.23;6.27;;;1.90;99.90;;;;;;5035808;28;20516;-65
2023/02/06 01:34:56;;;;;;;25.57;6.03;;;1.90;99.90;;;;;;5036282;28;20459;-65
2023/02/06 01:37:25;;;;;;;28.97;5.77;;;1.90;99.90;;;;;;5036527;28;20550;-65
2023/02/06 01:39:52;;;;;;;27.60;6.40;;;1.90;99.90;;;;;;5036060;28;20467;-65
2023/02/06 01:42:19;;;;;;;16.70;8.23;;;1.90;99.90;;;;;;5036076;28;20750;-65
2023/02/06 01:44:46;;;;;;;24.37;6.77;;;1.80;99.90;;;;;;5036028;28;20552;-65
2023/02/06 01:47:13;;;;;;;29.50;6.50;;;1.90;99.90;;;;;;5036305;28;20463;-65
2023/02/06 01:49:44;;;;;;;24.37;6.03;;;1.90;99.90;;;;;;5036476;28;20466;-65
2023/02/06 01:52:17;;;;;;;29.07;6.00;;;1.80;99.90;;;;;;5036012;28;20467;-64
2023/02/06 01:54:50;;;;;;;26.83;6.07;;;1.90;99.90;;;;;;5035697;28;20914;-64
2023/02/06 01:57:20;;;;;;;24.80;5.90;;;2.00;99.90;;;;;;5035595;28;20463;-64
2023/02/06 01:59:51;;;;;;;22.00;5.90;;;1.90;99.90;;;;;;5036210;28;20466;-64
2023/02/06 02:02:18;;;;;;;20.80;6.37;;;2.00;99.90;;;;;;5034832;28;20467;-64
2023/02/06 02:04:46;;;;;;;24.13;5.60;;;1.90;99.90;;;;;;5035531;28;20499;-65
2023/02/06 02:07:19;;;;;;;24.17;6.10;;;1.90;99.90;;;;;;5035923;28;20460;-65
2023/02/06 02:09:48;;;;;;;28.53;7.30;;;2.00;99.90;;;;;;5036225;28;20467;-65
2023/02/06 02:12:16;;;;;;;23.90;5.97;;;2.00;99.90;;;;;;5035743;28;20964;-65
2023/02/06 02:14:45;;;;;;;31.23;8.83;;;2.00;99.90;;;;;;5035509;28;20459;-65
2023/02/06 02:17:27;;;;;;;19.90;6.43;;;2.00;99.90;;;;;;5035828;28;20975;-65
2023/02/06 02:20:44;;;;;;;19.53;8.60;;;2.10;99.90;;;;;;5035093;28;20516;-65
2023/02/06 02:23:26;;;;;;;21.03;8.73;;;2.10;99.90;;;;;;5035967;28;20537;-65
2023/02/06 02:26:28;;;;;;;30.27;11.00;;;2.10;99.90;;;;;;5035490;28;20437;-65
2023/02/06 02:29:35;;;;;;;23.50;10.30;;;2.20;99.90;;;;;;5012473;28;20458;-65
2023/02/06 02:32:35;;;;;;;31.50;10.27;;;2.20;99.90;;;;;;5035468;28;20465;-65
2023/02/06 02:35:18;;;;;;;30.17;9.10;;;2.20;99.90;;;;;;5035532;28;20959;-65
2023/02/06 02:37:58;;;;;;;34.03;11.67;;;2.30;99.90;;;;;;5034256;28;20462;-65
2023/02/06 02:40:31;;;;;;;22.67;10.60;;;2.30;99.90;;;;;;5035348;28;20550;-65
2023/02/06 02:43:08;;;;;;;30.00;11.47;;;2.30;99.90;;;;;;5034939;28;20474;-65
2023/02/06 02:45:43;;;;;;;30.53;10.33;;;2.30;99.90;;;;;;5034253;28;20728;-65
2023/02/06 02:48:14;;;;;;;36.97;13.13;;;2.30;99.90;;;;;;5034728;28;20450;-65
2023/02/06 02:50:43;;;;;;;33.03;11.63;;;2.30;99.90;;;;;;5035500;28;20764;-65
2023/02/06 02:53:13;;;;;;;27.13;11.87;;;2.30;99.90;;;;;;5035377;28;20459;-65
2023/02/06 02:55:41;;;;;;;28.70;11.97;;;2.30;99.90;;;;;;5034729;28;20487;-65
2023/02/06 02:58:13;;;;;;;30.80;12.07;;;2.30;99.90;;;;;;5034894;28;20866;-65
2023/02/06 03:00:44;;;;;;;39.13;12.47;;;2.30;99.90;;;;;;5034863;28;20459;-64
2023/02/06 03:03:14;;;;;;;29.30;12.37;;;2.30;99.90;;;;;;5034519;28;20883;-64
2023/02/06 03:05:57;;;;;;;25.33;11.97;;;2.30;99.90;;;;;;5034882;28;20549;-64
2023/02/06 03:08:34;;;;;;;27.60;10.53;;;2.30;99.90;;;;;;5034850;28;20469;-64
2023/02/06 03:11:10;;;;;;;39.93;11.67;;;2.30;99.90;;;;;;5034876;28;20466;-64
2023/02/06 03:13:42;;;;;;;30.13;11.00;;;2.30;99.90;;;;;;5035341;28;20528;-64
2023/02/06 03:16:17;;;;;;;33.43;10.37;;;2.30;99.90;;;;;;5034095;28;20498;-64
2023/02/06 03:18:50;;;;;;;35.13;10.40;;;2.30;99.90;;;;;;5034747;28;20541;-63
2023/02/06 03:21:21;;;;;;;27.50;10.00;;;2.30;99.90;;;;;;5035128;28;20440;-63
2023/02/06 03:23:51;;;;;;;46.07;11.60;;;2.30;99.90;;;;;;5035131;28;20497;-63
2023/02/06 03:26:22;;;;;;;29.73;11.30;;;2.30;99.90;;;;;;5034676;28;20467;-63
2023/02/06 03:28:52;;;;;;;26.07;10.17;;;2.40;99.90;;;;;;5034638;28;20741;-63
2023/02/06 03:31:25;;;;;;;27.53;10.43;;;2.40;99.90;;;;;;5035157;28;20487;-63
2023/02/06 03:33:59;;;;;;;34.83;10.60;;;2.40;99.90;;;;;;5034282;28;20466;-63
2023/02/06 03:36:28;;;;;;;33.97;10.53;;;2.50;99.90;;;;;;5034592;28;20438;-63
2023/02/06 03:38:55;;;;;;;34.67;9.57;;;2.40;99.90;;;;;;5034576;28;20437;-63
2023/02/06 03:41:27;;;;;;;23.77;9.33;;;2.50;99.90;;;;;;5034877;28;20441;-63
2023/02/06 03:43:55;;;;;;;28.47;9.80;;;2.50;99.90;;;;;;5033827;28;20472;-63
2023/02/06 03:46:25;;;;;;;37.83;10.70;;;2.50;99.90;;;;;;5034036;28;20493;-63
2023/02/06 03:48:56;;;;;;;33.57;7.70;;;2.50;99.90;;;;;;5033927;28;20558;-63
2023/02/06 03:51:30;;;;;;;27.67;8.50;;;2.50;99.90;;;;;;5034364;28;20561;-63
2023/02/06 03:54:01;;;;;;;35.00;9.23;;;2.50;99.90;;;;;;5034401;28;20451;-63
2023/02/06 03:56:34;;;;;;;24.83;8.50;;;2.50;99.90;;;;;;5035482;28;20487;-63
2023/02/06 03:59:01;;;;;;;34.23;10.57;;;2.40;99.90;;;;;;5037743;28;20882;-64
2023/02/06 04:01:29;;;;;;;36.10;10.80;;;2.40;99.90;;;;;;5037852;28;20438;-63
2023/02/06 04:03:57;;;;;;;25.67;9.07;;;2.50;99.90;;;;;;5037324;28;20941;-63
2023/02/06 04:06:24;;;;;;;35.30;10.53;;;2.50;99.90;;;;;;5036380;28;20481;-63
2023/02/06 04:08:53;;;;;;;37.20;12.50;;;2.50;99.90;;;;;;5023042;28;20447;-63
2023/02/06 04:11:20;;;;;;;29.13;11.87;;;2.50;99.90;;;;;;5018302;28;20474;-63
2023/02/06 04:13:47;;;;;;;30.30;10.97;;;2.50;99.90;;;;;;5017923;28;20454;-63
2023/02/06 04:16:14;;;;;;;22.87;10.23;;;2.50;99.90;;;;;;5028262;28;20752;-63
2023/02/06 04:18:41;;;;;;;25.67;10.70;;;2.50;99.90;;;;;;5037432;28;20880;-63
2023/02/06 04:21:09;;;;;;;39.67;10.30;;;2.50;99.90;;;;;;5037372;28;20448;-63
2023/02/06 04:23:36;;;;;;;24.33;9.87;;;2.40;99.90;;;;;;5036601;28;20463;-63
2023/02/06 04:26:05;;;;;;;33.30;11.13;;;2.50;99.90;;;;;;5036333;28;20469;-63
2023/02/06 04:28:32;;;;;;;25.57;9.37;;;2.50;99.90;;;;;;5037363;28;20469;-63
2023/02/06 04:30:59;;;;;;;30.37;10.10;;;2.50;99.90;;;;;;5037311;28;20561;-63
2023/02/06 04:33:26;;;;;;;36.63;10.20;;;2.60;99.90;;;;;;5037349;28;20467;-63
2023/02/06 04:35:53;;;;;;;25.57;9.37;;;2.50;99.90;;;;;;5037187;28;20463;-63
2023/02/06 04:38:21;;;;;;;27.30;9.30;;;2.50;99.90;;;;;;5037204;28;20469;-63
2023/02/06 04:40:48;;;;;;;24.80;9.00;;;2.40;99.90;;;;;;5036462;28;20443;-63
2023/02/06 04:43:16;;;;;;;27.20;9.73;;;2.40;99.90;;;;;;5037208;28;20951;-63
2023/02/06 04:45:43;;;;;;;31.20;10.80;;;2.40;99.90;;;;;;5037194;28;20470;-63
2023/02/06 04:48:11;;;;;;;33.63;11.97;;;2.40;99.90;;;;;;5036768;28;20444;-63
2023/02/06 04:50:38;;;;;;;39.63;13.20;;;2.40;99.90;;;;;;5036001;28;20459;-64
2023/02/06 04:53:05;;;;;;;37.40;12.10;;;2.30;99.90;;;;;;5036943;28;20463;-63
2023/02/06 04:55:32;;;;;;;41.80;13.10;;;2.30;99.90;;;;;;5036244;28;20753;-63
2023/02/06 04:57:59;;;;;;;39.90;12.53;;;2.30;99.90;;;;;;5036839;28;20898;-63
2023/02/06 05:00:28;;;;;;;36.60;14.57;;;2.30;99.90;;;;;;5035859;28;20854;-64
2023/02/06 05:02:55;;;;;;;35.03;13.70;;;2.20;99.90;;;;;;5037076;28;20463;-64
2023/02/06 05:05:22;;;;;;;42.47;17.03;;;2.20;99.90;;;;;;5036469;28;20935;-63
2023/02/06 05:07:49;;;;;;;44.50;15.67;;;2.30;99.90;;;;;;5034836;28;20462;-64
2023/02/06 05:10:17;;;;;;;46.83;16.60;;;2.20;99.90;;;;;;5036154;28;20768;-63
2023/02/06 05:12:44;;;;;;;37.80;15.20;;;2.10;99.90;;;;;;5034603;28;20731;-63
2023/02/06 05:15:12;;;;;;;38.10;16.40;;;2.00;99.90;;;;;;5034071;28;20470;-63
2023/02/06 05:17:40;;;;;;;31.93;14.60;;;2.10;99.90;;;;;;5034618;28;20512;-64
2023/02/06 05:20:11;;;;;;;37.67;15.83;;;2.00;99.90;;;;;;5034061;28;20438;-64
2023/02/06 05:22:38;;;;;;;34.63;14.17;;;1.90;99.90;;;;;;5034026;28;20460;-64
2023/02/06 05:25:06;;;;;;;36.10;15.40;;;1.90;99.90;;;;;;5033910;28;20489;-64
2023/02/06 05:27:36;;;;;;;27.27;16.00;;;1.90;99.90;;;;;;5033602;28;20434;-64
2023/02/06 05:30:06;;;;;;;25.90;14.57;;;1.90;99.90;;;;;;5034284;28;20456;-64
2023/02/06 05:32:34;;;;;;;29.27;14.77;;;1.80;99.90;;;;;;5034695;28;20430;-64
2023/02/06 05:35:02;;;;;;;38.37;14.47;;;1.80;99.90;;;;;;5034902;28;20521;-64
2023/02/06 05:37:29;;;;;;;36.33;15.60;;;1.80;99.90;;;;;;5033254;28;20903;-64
2023/02/06 05:39:57;;;;;;;34.23;14.90;;;1.90;99.90;;;;;;5032352;28;20441;-64
2023/02/06 05:42:27;;;;;;;31.60;13.83;;;1.90;99.90;;;;;;5034523;28;20482;-64
2023/02/06 05:44:54;;;;;;;31.13;15.20;;;1.90;99.90;;;;;;5033741;28;20571;-64
2023/02/06 05:47:22;;;;;;;30.57;15.80;;;1.90;99.90;;;;;;5034024;28;20600;-64
2023/02/06 05:49:51;;;;;;;34.23;14.13;;;1.90;99.90;;;;;;5028691;28;20821;-64
2023/02/06 05:52:19;;;;;;;28.00;14.00;;;1.90;99.90;;;;;;5034673;28;20542;-64
2023/02/06 05:54:46;;;;;;;34.70;13.40;;;1.70;99.90;;;;;;5034284;27;20468;-64
2023/02/06 05:57:14;;;;;;;30.33;13.07;;;1.70;99.90;;;;;;5033953;28;20459;-64
2023/02/06 05:59:41;;;;;;;27.93;12.70;;;1.70;99.90;;;;;;5034787;28;20455;-63
2023/02/06 06:02:08;;;;;;;34.57;13.70;;;1.70;99.90;;;;;;5033364;28;20434;-63
2023/02/06 06:04:35;;;;;;;36.00;13.17;;;1.70;99.90;;;;;;5031256;28;20498;-64
2023/02/06 06:07:03;;;;;;;39.97;14.70;;;1.80;99.90;;;;;;5032342;28;20502;-64
2023/02/06 06:09:31;;;;;;;34.90;14.33;;;1.70;99.90;;;;;;5030549;28;20477;-64
2023/02/06 06:11:59;;;;;;;33.10;14.10;;;1.80;99.90;;;;;;5032972;28;20697;-64
2023/02/06 06:14:26;;;;;;;37.57;14.70;;;1.80;99.90;;;;;;5033421;28;20546;-64
2023/02/06 06:16:53;;;;;;;39.30;14.50;;;1.80;99.90;;;;;;5034060;28;20884;-64
2023/02/06 06:19:21;;;;;;;28.47;14.90;;;1.80;99.90;;;;;;5033831;28;20434;-64
2023/02/06 06:21:48;;;;;;;36.43;15.13;;;1.80;99.90;;;;;;5035535;28;20434;-63
2023/02/06 06:24:15;;;;;;;28.87;14.63;;;1.80;99.90;;;;;;5035117;28;20498;-64
2023/02/06 06:26:44;;;;;;;34.43;13.00;;;1.70;99.90;;;;;;5034414;28;20941;-64
2023/02/06 06:29:11;;;;;;;27.53;12.10;;;1.80;99.90;;;;;;5034405;28;20452;-63
2023/02/06 06:31:41;;;;;;;33.57;12.40;;;1.80;99.90;;;;;;5034198;28;20459;-63
2023/02/06 06:34:09;;;;;;;34.93;15.50;;;1.80;99.90;;;;;;5033220;28;20444;-63
2023/02/06 06:36:36;;;;;;;35.40;15.90;;;1.90;99.90;;;;;;5034514;28;20555;-63
2023/02/06 06:39:03;;;;;;;29.13;13.93;;;1.90;99.90;;;;;;5033896;28;20471;-64
2023/02/06 06:41:31;;;;;;;39.20;15.97;;;2.00;99.90;;;;;;5033940;28;20467;-64
2023/02/06 06:43:59;;;;;;;49.10;16.97;;;2.00;99.90;;;;;;5033267;28;20463;-64
2023/02/06 06:46:27;;;;;;;43.50;15.67;;;2.10;99.90;;;;;;5034414;28;20582;-64
2023/02/06 06:48:54;;;;;;;36.60;14.63;;;2.00;99.90;;;;;;5033795;28;20893;-64
2023/02/06 06:51:21;;;;;;;34.80;14.47;;;2.00;99.90;;;;;;5034446;28;20533;-65
2023/02/06 06:53:48;;;;;;;42.33;16.30;;;2.00;99.90;;;;;;5034347;28;20465;-65
2023/02/06 06:56:16;;;;;;;33.07;15.10;;;2.00;99.90;;;;;;5034858;28;20487;-64
2023/02/06 06:58:43;;;;;;;39.37;14.70;;;2.00;99.90;;;;;;5035350;28;20883;-64
2023/02/06 07:01:13;;;;;;;35.03;15.37;;;2.00;99.90;;;;;;5034262;28;20773;-65
2023/02/06 07:03:42;;;;;;;41.20;16.23;;;2.00;99.90;;;;;;5033853;28;20514;-65
2023/02/06 07:06:11;;;;;;;38.23;15.27;;;2.00;99.90;;;;;;5032807;28;20800;-65
2023/02/06 07:08:40;;;;;;;42.97;16.03;;;2.00;99.90;;;;;;5029316;28;20747;-65
2023/02/06 07:11:08;;;;;;;33.70;15.33;;;2.00;99.90;;;;;;5031715;28;20886;-65
2023/02/06 07:13:35;;;;;;;37.73;15.70;;;2.00;99.90;;;;;;5030465;28;20455;-65
2023/02/06 07:16:02;;;;;;;40.57;16.33;;;2.00;99.90;;;;;;5031496;28;20813;-65
2023/02/06 07:18:31;;;;;;;30.83;14.87;;;2.00;99.90;;;;;;5032112;28;20916;-65
2023/02/06 07:21:00;;;;;;;31.73;15.03;;;2.00;99.90;;;;;;5031997;28;20430;-65
2023/02/06 07:23:27;;;;;;;33.53;15.10;;;2.10;99.90;;;;;;5033859;28;20483;-65
2023/02/06 07:25:55;;;;;;;36.97;18.60;;;2.10;99.90;;;;;;5033225;28;20475;-65
2023/02/06 07:28:22;;;;;;;31.23;14.97;;;2.10;99.90;;;;;;5032599;28;20516;-65
2023/02/06 07:30:49;;;;;;;36.03;17.27;;;2.20;99.90;;;;;;5032885;28;20445;-65
2023/02/06 07:33:16;;;;;;;37.13;14.60;;;2.20;99.90;;;;;;5035249;28;20460;-65
2023/02/06 07:35:45;;;;;;;33.87;16.50;;;2.30;99.90;;;;;;5034803;28;20759;-65
2023/02/06 07:38:12;;;;;;;39.87;15.30;;;2.30;99.90;;;;;;5034638;28;20551;-65
2023/02/06 07:40:39;;;;;;;34.30;14.70;;;2.30;99.90;;;;;;5034276;28;20507;-65
2023/02/06 07:43:07;;;;;;;36.50;16.43;;;2.30;99.90;;;;;;5034534;28;20554;-65
2023/02/06 07:45:34;;;;;;;37.00;14.97;;;2.40;99.90;;;;;;5034748;28;20492;-65
2023/02/06 07:48:04;;;;;;;38.30;16.90;;;2.30;99.90;;;;;;5034212;28;20472;-65
2023/02/06 07:50:31;;;;;;;37.60;14.77;;;2.30;99.90;;;;;;5034399;28;20463;-65
2023/02/06 07:53:00;;;;;;;32.03;14.67;;;2.40;99.90;;;;;;5034659;28;20481;-65
2023/02/06 07:55:27;;;;;;;30.40;14.50;;;2.40;99.90;;;;;;5032520;28;20571;-65
2023/02/06 07:57:55;;;;;;;34.23;17.50;;;2.40;99.90;;;;;;5032668;28;20782;-65
2023/02/06 08:00:22;;;;;;;27.03;14.20;;;2.50;99.90;;;;;;5032928;28;20729;-65
2023/02/06 08:02:49;;;;;;;25.70;13.00;;;2.50;99.90;;;;;;5032869;28;20467;-65
2023/02/06 08:05:17;;;;;;;26.53;13.80;;;2.50;99.90;;;;;;5032860;28;20469;-65
2023/02/06 08:07:44;;;;;;;27.03;14.10;;;2.70;99.90;;;;;;5028836;28;20449;-65
2023/02/06 08:10:13;;;;;;;33.47;14.00;;;2.90;99.90;;;;;;5030744;28;20464;-65
2023/02/06 08:12:40;;;;;;;31.90;13.67;;;3.20;99.90;;;;;;5031645;28;20459;-65
2023/02/06 08:15:08;;;;;;;29.10;15.20;;;3.40;99.90;;;;;;5031703;28;20917;-65
2023/02/06 08:17:35;;;;;;;35.93;13.80;;;3.40;99.90;;;;;;5032361;28;20463;-65
2023/02/06 08:20:03;;;;;;;37.50;14.47;;;3.30;99.90;;;;;;5071073;28;20437;-65
2023/02/06 08:22:30;;;;;;;35.73;13.40;;;3.30;99.90;;;;;;5032097;28;20438;-65
2023/02/06 08:24:57;;;;;;;25.20;12.93;;;3.40;99.90;;;;;;5033582;28;20853;-65
2023/02/06 08:27:26;;;;;;;38.00;14.50;;;3.30;99.90;;;;;;5030555;28;20475;-65
2023/02/06 08:29:56;;;;;;;28.87;14.07;;;3.40;99.90;;;;;;5013473;28;20452;-65
2023/02/06 08:32:23;;;;;;;34.40;14.67;;;3.30;99.90;;;;;;5028012;28;20757;-65
2023/02/06 08:34:50;;;;;;;29.63;14.80;;;3.40;99.90;;;;;;5022423;28;20574;-65
2023/02/06 08:37:17;;;;;;;35.97;14.17;;;3.40;99.90;;;;;;5027644;28;20562;-65
2023/02/06 08:39:44;;;;;;;29.43;14.97;;;3.40;99.90;;;;;;5029572;28;20430;-65
2023/02/06 08:42:11;;;;;;;34.03;14.63;;;3.40;99.90;;;;;;5029660;28;20426;-65
2023/02/06 08:44:40;;;;;;;34.87;14.50;;;3.40;99.90;;;;;;5030621;28;20730;-65
2023/02/06 08:47:07;;;;;;;27.77;13.37;;;3.50;99.90;;;;;;5031644;28;20471;-65
2023/02/06 08:49:35;;;;;;;28.43;13.10;;;3.60;99.90;;;;;;5029097;28;20955;-65
2023/02/06 08:52:02;;;;;;;32.60;13.37;;;3.50;99.90;;;;;;5029121;28;20434;-65
2023/02/06 08:54:29;;;;;;;24.67;13.67;;;3.50;99.90;;;;;;5031109;28;20463;-65
2023/02/06 08:56:59;;;;;;;32.57;14.03;;;3.60;99.90;;;;;;5031825;28;20718;-66
2023/02/06 08:59:28;;;;;;;30.40;13.63;;;3.70;99.90;;;;;;5033774;28;20453;-66
2023/02/06 09:01:56;;;;;;;26.30;12.80;;;3.80;99.90;;;;;;5032707;27;20459;-66
2023/02/06 09:04:24;;;;;;;33.70;13.93;;;3.80;99.90;;;;;;5036684;27;20455;-66
2023/02/06 09:06:51;;;;;;;29.87;13.70;;;3.90;99.90;;;;;;5032350;28;20462;-66
2023/02/06 09:09:18;;;;;;;23.50;12.87;;;4.00;99.90;;;;;;5032898;28;20459;-66
2023/02/06 09:11:46;;;;;;;20.67;11.57;;;4.00;99.90;;;;;;5035176;28;20813;-65
2023/02/06 09:14:15;;;;;;;37.77;13.90;;;4.00;99.90;;;;;;5037438;27;20915;-65
2023/02/06 09:16:43;;;;;;;27.23;12.53;;;4.10;99.90;;;;;;5034520;28;20750;-66
2023/02/06 09:19:13;;;;;;;32.00;13.13;;;4.10;99.90;;;;;;5034072;27;21160;-66
2023/02/06 09:21:40;;;;;;;26.87;13.00;;;4.10;99.90;;;;;;5031179;28;20520;-66
2023/02/06 09:24:09;;;;;;;34.03;13.80;;;4.20;99.90;;;;;;5031172;28;20800;-66
2023/02/06 09:26:37;;;;;;;29.40;13.80;;;4.20;99.90;;;;;;5027557;28;20587;-66
2023/02/06 09:29:06;;;;;;;31.77;14.13;;;4.30;99.90;;;;;;5033472;28;20455;-66
2023/02/06 09:31:36;;;;;;;26.97;12.63;;;4.40;99.90;;;;;;5027871;28;20533;-66
2023/02/06 09:34:03;;;;;;;25.60;13.40;;;4.50;99.90;;;;;;5012854;28;20741;-66
2023/02/06 09:36:33;;;;;;;28.20;13.43;;;4.70;99.90;;;;;;5013507;28;20435;-66
2023/02/06 09:39:04;;;;;;;21.87;12.20;;;4.80;99.90;;;;;;5013722;28;20495;-66
2023/02/06 09:41:35;;;;;;;24.30;11.80;;;4.70;99.90;;;;;;5014017;28;20451;-66
2023/02/06 09:44:07;;;;;;;22.70;13.37;;;4.40;99.90;;;;;;5031361;27;20558;-66
2023/02/06 09:46:41;;;;;;;23.87;12.13;;;4.50;99.90;;;;;;5031554;27;20579;-66
2023/02/06 09:49:13;;;;;;;24.27;12.77;;;4.80;99.90;;;;;;5030484;28;20430;-66
2023/02/06 09:51:59;;;;;;;21.83;11.77;;;4.90;99.90;;;;;;5033078;28;20513;-66
2023/02/06 09:54:41;;;;;;;27.47;12.07;;;5.10;99.90;;;;;;5031538;28;20925;-66
2023/02/06 09:57:14;;;;;;;31.67;20.97;;;5.20;1.00;;;;;;5032103;28;20418;-66
2023/02/06 09:59:46;;;;;;;25.27;12.93;;;5.30;1.00;;;;;;5034210;28;20473;-66
2023/02/06 10:02:40;;;;;;;30.73;13.10;;;5.40;1.00;;;;;;5033521;28;20455;-66
2023/02/06 10:05:19;;;;;;;23.10;12.20;;;5.50;1.00;;;;;;5035503;27;20505;-66
2023/02/06 10:07:58;;;;;;;25.40;12.67;;;5.40;1.00;;;;;;5031814;28;20575;-66
2023/02/06 10:10:35;;;;;;;21.03;9.50;;;5.30;1.00;;;;;;5028167;28;20446;-66
2023/02/06 10:13:10;;;;;;;25.50;10.27;;;5.10;1.00;;;;;;5035793;27;20467;-66
2023/02/06 10:15:42;;;;;;;17.67;9.10;;;5.40;1.00;;;;;;5032108;28;20542;-66
2023/02/06 10:18:14;;;;;;;23.20;8.93;;;5.50;1.00;;;;;;5030248;28;20467;-66
2023/02/06 10:20:48;;;;;;;16.00;9.23;;;5.70;1.00;;;;;;5032371;28;20462;-67
2023/02/06 10:23:28;;;;;;;18.87;8.23;;;6.00;1.00;;;;;;5031504;28;20566;-66
2023/02/06 10:26:04;;;;;;;11.50;9.00;;;6.30;1.00;;;;;;5029447;28;20505;-67
2023/02/06 10:28:34;;;;;;;17.47;8.10;;;6.20;1.00;;;;;;5029096;28;20462;-67
2023/02/06 10:31:34;;;;;;;17.63;8.70;;;5.90;1.00;;;;;;5031352;28;20463;-67
2023/02/06 10:34:16;;;;;;;18.07;8.37;;;5.60;1.00;;;;;;5030118;28;20465;-67
2023/02/06 10:36:56;;;;;;;17.07;8.50;;;5.40;1.00;;;;;;5030789;28;20459;-66
2023/02/06 10:39:48;;;;;;;17.47;8.33;;;5.40;1.00;;;;;;5031987;28;20456;-66
2023/02/06 10:42:23;;;;;;;16.97;8.83;;;5.80;1.00;;;;;;5030729;28;20458;-66
2023/02/06 10:44:58;;;;;;;19.47;9.23;;;6.40;1.00;;;;;;5030481;28;20459;-66
2023/02/06 10:47:36;;;;;;;20.47;10.23;;;6.70;1.00;;;;;;5029368;28;20490;-66
2023/02/06 10:50:13;;;;;;;22.63;8.90;;;6.80;1.00;;;;;;5023273;28;20477;-66
2023/02/06 10:52:41;;;;;;;19.80;8.80;;;6.50;1.00;;;;;;5032389;28;20461;-66
2023/02/06 10:55:19;;;;;;;15.87;7.50;;;6.10;1.00;;;;;;5033267;28;20487;-66
2023/02/06 10:57:49;;;;;;;16.47;8.90;;;5.90;1.00;;;;;;5033302;28;20471;-66
2023/02/06 11:00:22;;;;;;;15.53;7.97;;;5.70;1.00;;;;;;5025894;28;20471;-66
2023/02/06 11:02:54;;;;;;;20.47;7.90;;;5.40;1.00;;;;;;5033637;28;20463;-66
2023/02/06 11:05:24;;;;;;;15.70;8.47;;;5.20;1.00;;;;;;5030160;28;20452;-66
2023/02/06 11:07:54;;;;;;;17.80;7.90;;;5.10;1.00;;;;;;5032342;28;20447;-65
2023/02/06 11:10:26;;;;;;;22.37;9.50;;;5.10;1.00;;;;;;5029254;28;20508;-66
2023/02/06 11:13:02;;;;;;;19.00;8.23;;;5.50;1.00;;;;;;5034087;28;20887;-66
2023/02/06 11:15:34;;;;;;;23.60;7.43;;;5.70;1.00;;;;;;5034239;28;20442;-65
2023/02/06 11:18:04;;;;;;;16.97;7.33;;;5.80;1.00;;;;;;5033820;28;20939;-66
2023/02/06 11:20:35;;;;;;;22.90;7.90;;;6.10;1.00;;;;;;5034489;28;20747;-66
2023/02/06 11:23:16;;;;;;;15.50;6.77;;;6.30;1.00;;;;;;5033471;28;20467;-66
2023/02/06 11:25:48;;;;;;;15.00;6.20;;;6.50;1.00;;;;;;5031515;28;20442;-65
2023/02/06 11:28:20;;;;;;;12.57;6.00;;;6.50;1.00;;;;;;5030366;28;20868;-65
2023/02/06 11:30:56;;;;;;;15.00;6.10;;;6.40;1.00;;;;;;5031402;28;20458;-65
2023/02/06 11:33:29;;;;;;;14.30;6.50;;;7.40;1.00;;;;;;5031862;28;20467;-65
2023/02/06 11:35:59;;;;;;;17.53;5.90;;;7.20;1.00;;;;;;5030870;28;20456;-65
2023/02/06 11:38:28;;;;;;;11.40;6.50;;;7.20;1.00;;;;;;5031625;28;20903;-65
2023/02/06 11:41:00;;;;;;;11.43;5.00;;;8.00;1.00;;;;;;5032873;28;20456;-65
2023/02/06 11:43:31;;;;;;;12.90;6.50;;;8.80;1.00;;;;;;5033288;28;20837;-65
2023/02/06 11:46:14;;;;;;;16.63;7.20;;;9.00;1.00;;;;;;5033146;28;20488;-65
2023/02/06 11:48:43;;;;;;;14.30;6.33;;;9.00;1.00;;;;;;5030637;28;20426;-64
2023/02/06 11:51:12;;;;;;;14.20;5.43;;;8.60;1.00;;;;;;5032902;28;20455;-64
2023/02/06 11:53:53;;;;;;;10.93;5.13;;;8.30;1.00;;;;;;5034069;28;20458;-64
2023/02/06 11:56:22;;;;;;;11.37;5.20;;;8.10;1.00;;;;;;5029856;28;20483;-64
2023/02/06 11:59:03;;;;;;;12.30;5.23;;;7.20;1.00;;;;;;5032816;28;20459;-64
2023/02/06 12:01:40;;;;;;;10.00;5.00;;;6.90;1.00;;;;;;5031498;28;20763;-64
2023/02/06 12:04:22;;;;;;;12.93;4.97;;;7.00;1.00;;;;;;5030015;28;20484;-64
2023/02/06 12:06:53;;;;;;;14.63;4.67;;;6.70;1.00;;;;;;5031404;28;20988;-64
2023/02/06 12:09:21;;;;;;;13.00;5.27;;;6.50;1.00;;;;;;5030400;28;20467;-64
2023/02/06 12:11:56;;;;;;;10.93;5.10;;;6.70;1.00;;;;;;5032639;28;20509;-61
2023/02/06 12:14:29;;;;;;;10.63;6.03;;;6.70;1.00;;;;;;5029981;28;20971;-62
2023/02/06 12:16:57;;;;;;;13.73;6.10;;;6.70;1.00;;;;;;5030638;28;20426;-63
2023/02/06 12:19:30;;;;;;;11.83;5.20;;;6.80;1.00;;;;;;5036249;28;20524;-63
2023/02/06 12:22:02;;;;;;;11.20;5.20;;;6.30;1.00;;;;;;5033218;28;20811;-63
2023/02/06 12:24:33;;;;;;;10.13;5.30;;;6.00;1.00;;;;;;5035354;28;20463;-63
2023/02/06 12:27:09;;;;;;;13.33;5.70;;;6.20;1.00;;;;;;5034096;28;20479;-63
2023/02/06 12:29:40;;;;;;;17.30;6.30;;;5.90;1.00;;;;;;5033912;28;20426;-63
2023/02/06 12:32:15;;;;;;;15.10;6.00;;;5.90;1.00;;;;;;5035614;28;20459;-63
2023/02/06 12:34:52;;;;;;;13.83;6.40;;;5.90;1.00;;;;;;5034008;28;20505;-63
2023/02/06 12:37:30;;;;;;;14.20;6.13;;;5.80;1.00;;;;;;5034015;28;20459;-63
2023/02/06 12:39:58;;;;;;;13.37;6.70;;;5.70;1.00;;;;;;5033162;28;20455;-64
2023/02/06 12:42:47;;;;;;;11.97;6.17;;;5.70;1.00;;;;;;5036136;27;20490;-63
2023/02/06 12:45:31;;;;;;;17.53;7.20;;;5.80;1.00;;;;;;5035103;28;20426;-61
2023/02/06 12:48:03;;;;;;;12.87;7.03;;;5.90;1.00;;;;;;5032936;28;20479;-63
2023/02/06 12:50:33;;;;;;;16.33;7.40;;;5.90;1.00;;;;;;5035215;28;20936;-61
2023/02/06 12:53:05;;;;;;;17.67;8.30;;;5.70;1.00;;;;;;5035509;28;20884;-62
2023/02/06 12:55:37;;;;;;;23.90;10.87;;;5.60;1.00;;;;;;5036050;28;20486;-62
2023/02/06 12:58:20;;;;;;;25.23;10.10;;;5.60;1.00;;;;;;5036933;28;20805;-63
2023/02/06 13:01:23;;;;;;;21.30;9.80;;;5.60;1.00;;;;;;5032991;28;20463;-63